createdAt,value
2023-05-13T00:00:37.351Z,101581.13
2023-05-13T00:03:07.269Z,101592.72
2023-05-13T00:05:35.322Z,101584.91
2023-05-13T00:08:07.144Z,101584.16
2023-05-13T00:10:41.523Z,101583.41
2023-05-13T00:13:11.531Z,101575.34
2023-05-13T00:15:44.426Z,101574.72
2023-05-13T00:18:14.748Z,101586.31
2023-05-13T00:21:05.558Z,101576.66
2023-05-13T00:23:44.369Z,101581.75
2023-05-13T00:26:11.418Z,101586.47
2023-05-13T00:28:38.228Z,101581.44
2023-05-13T00:31:08.634Z,101592.09
2023-05-13T00:33:35.845Z,101589.75
2023-05-13T00:36:07.124Z,101575.44
2023-05-13T00:38:37.345Z,101592.78
2023-05-13T00:41:06.245Z,101596.75
2023-05-13T00:43:35.605Z,101583.00
2023-05-13T00:46:15.474Z,101585.16
2023-05-13T00:48:42.757Z,101578.31
2023-05-13T00:51:10.560Z,101576.69
2023-05-13T00:53:39.454Z,101587.25
2023-05-13T00:56:12.562Z,101588.84
2023-05-13T00:58:46.050Z,101590.44
2023-05-13T01:02:16.799Z,101582.91
2023-05-13T01:05:09.170Z,101592.97
2023-05-13T01:08:20.225Z,101586.50
2023-05-13T01:11:01.812Z,101594.13
2023-05-13T01:13:43.549Z,101592.25
2023-05-13T01:16:29.837Z,101589.34
2023-05-13T01:19:44.474Z,101593.75
2023-05-13T01:22:14.263Z,101595.34
2023-05-13T01:24:46.348Z,101585.00
2023-05-13T01:27:17.536Z,101588.50
2023-05-13T01:29:45.931Z,101595.28
2023-05-13T01:32:16.749Z,101587.84
2023-05-13T01:34:49.310Z,101600.84
2023-05-13T01:37:19.863Z,101600.59
2023-05-13T01:39:52.222Z,101595.84
2023-05-13T01:42:20.278Z,101603.03
2023-05-13T01:44:47.150Z,101601.63
2023-05-13T01:47:20.927Z,101598.22
2023-05-13T01:49:47.654Z,101597.72
2023-05-13T01:52:23.507Z,101606.19
2023-05-13T01:54:58.255Z,101601.34
2023-05-13T01:57:30.220Z,101605.25
2023-05-13T02:00:08.202Z,101604.94
2023-05-13T02:02:41.242Z,101593.06
2023-05-13T02:05:20.687Z,101606.91
2023-05-13T02:07:47.592Z,101596.25
2023-05-13T02:10:29.376Z,101605.91
2023-05-13T02:13:01.337Z,101602.50
2023-05-13T02:15:28.187Z,101593.91
2023-05-13T02:17:58.226Z,101604.56
2023-05-13T02:20:26.386Z,101604.69
2023-05-13T02:22:55.397Z,101595.09
2023-05-13T02:25:22.673Z,101601.47
2023-05-13T02:27:49.442Z,101600.28
2023-05-13T02:30:30.390Z,101593.19
2023-05-13T02:33:09.172Z,101596.50
2023-05-13T02:35:39.790Z,101595.88
2023-05-13T02:38:10.523Z,101600.72
2023-05-13T02:40:49.659Z,101597.06
2023-05-13T02:43:31.738Z,101597.78
2023-05-13T02:46:02.265Z,101593.75
2023-05-13T02:48:45.022Z,101594.97
2023-05-13T02:51:11.793Z,101600.22
2023-05-13T02:53:39.297Z,101595.72
2023-05-13T02:56:11.429Z,101599.50
2023-05-13T02:58:43.990Z,101607.19
2023-05-13T03:01:19.589Z,101601.06
2023-05-13T03:03:46.562Z,101596.53
2023-05-13T03:06:21.189Z,101597.72
2023-05-13T03:08:48.035Z,101594.56
2023-05-13T03:11:15.001Z,101592.22
2023-05-13T03:13:43.718Z,101588.44
2023-05-13T03:16:11.301Z,101589.16
2023-05-13T03:18:44.868Z,101589.53
2023-05-13T03:21:11.967Z,101590.72
2023-05-13T03:23:43.695Z,101589.88
2023-05-13T03:26:10.557Z,101589.78
2023-05-13T03:28:46.663Z,101583.16
2023-05-13T03:31:13.793Z,101587.81
2023-05-13T03:34:12.938Z,101590.16
2023-05-13T03:36:43.950Z,101582.19
2023-05-13T03:39:16.488Z,101575.13
2023-05-13T03:41:43.531Z,101582.09
2023-05-13T03:44:10.624Z,101590.16
2023-05-13T03:46:40.745Z,101584.25
2023-05-13T03:49:10.932Z,101572.66
2023-05-13T03:51:47.656Z,101595.28
2023-05-13T03:54:17.512Z,101583.06
2023-05-13T03:56:47.143Z,101585.75
2023-05-13T03:59:13.927Z,101581.09
2023-05-13T04:01:43.263Z,101585.38
2023-05-13T04:04:22.776Z,101588.81
2023-05-13T04:06:53.438Z,101593.09
2023-05-13T04:09:23.190Z,101592.00
2023-05-13T04:11:50.230Z,101594.38
2023-05-13T04:14:25.058Z,101596.56
2023-05-13T04:16:51.936Z,101591.91
2023-05-13T04:19:19.058Z,101593.19
2023-05-13T04:21:50.563Z,101587.94
2023-05-13T04:24:17.585Z,101603.00
2023-05-13T04:27:01.407Z,101602.91
2023-05-13T04:29:28.913Z,101598.38
2023-05-13T04:31:58.741Z,101601.78
2023-05-13T05:12:55.292Z,101633.59
2023-05-13T05:31:45.853Z,101645.94
2023-05-13T05:34:12.994Z,101646.19
2023-05-13T05:36:43.081Z,101647.78
2023-05-13T05:39:10.245Z,101647.88
2023-05-13T05:41:37.087Z,101646.59
2023-05-13T05:44:10.324Z,101654.34
2023-05-13T05:46:37.237Z,101656.50
2023-05-13T05:49:04.521Z,101658.63
2023-05-13T05:51:31.659Z,101653.44
2023-05-13T06:35:47.412Z,101674.69
2023-05-13T06:57:42.982Z,101688.47
2023-05-13T07:00:17.792Z,101693.69
2023-05-13T07:02:47.121Z,101680.94
2023-05-13T07:05:13.956Z,101686.56
2023-05-13T07:07:40.674Z,101685.13
2023-05-13T07:10:07.857Z,101687.50
2023-05-13T07:13:20.656Z,101692.31
2023-05-13T07:15:56.530Z,101691.19
2023-05-13T07:18:24.046Z,101687.84
2023-05-13T07:49:27.682Z,101689.34
2023-05-13T09:00:13.704Z,101706.44
2023-05-13T09:17:27.522Z,101710.69
2023-05-13T09:19:56.949Z,101708.16
2023-05-13T09:23:11.706Z,101706.44
2023-05-13T09:29:38.755Z,101708.16
2023-05-13T09:32:15.152Z,101700.53
2023-05-13T09:36:00.516Z,101698.81
2023-05-13T09:38:51.272Z,101691.00
2023-05-13T09:41:27.305Z,101699.66
2023-05-13T09:44:14.196Z,101698.00
2023-05-13T09:46:44.359Z,101696.50
2023-05-13T09:49:15.268Z,101699.88
2023-05-13T09:51:58.829Z,101701.31
2023-05-13T09:54:25.876Z,101698.97
2023-05-13T09:57:09.265Z,101687.16
2023-05-13T09:59:37.099Z,101696.25
2023-05-13T10:02:08.718Z,101696.44
2023-05-13T10:04:35.686Z,101686.84
2023-05-13T10:07:08.841Z,101691.31
2023-05-13T10:09:47.596Z,101689.50
2023-05-13T10:12:15.587Z,101690.56
2023-05-13T10:15:12.818Z,101683.59
2023-05-13T10:18:07.672Z,101685.09
2023-05-13T10:20:37.510Z,101690.19
2023-05-13T10:26:44.362Z,101680.47
2023-05-13T10:29:43.459Z,101685.75
2023-05-13T10:32:33.471Z,101686.00
2023-05-13T10:35:25.439Z,101681.06
2023-05-13T10:38:16.677Z,101677.78
2023-05-13T10:42:08.108Z,101677.72
2023-05-13T10:44:36.396Z,101683.88
2023-05-13T10:50:26.490Z,101679.88
2023-05-13T10:52:59.572Z,101676.03
2023-05-13T10:58:38.856Z,101678.81
2023-05-13T11:01:44.456Z,101681.81
2023-05-13T11:04:23.035Z,101683.28
2023-05-13T11:06:55.885Z,101681.47
2023-05-13T11:09:23.169Z,101670.09
2023-05-13T11:12:11.063Z,101669.59
2023-05-13T11:14:38.034Z,101663.59
2023-05-13T11:17:14.188Z,101668.03
2023-05-13T11:19:57.501Z,101661.41
2023-05-13T11:22:27.210Z,101652.16
2023-05-13T11:25:10.680Z,101659.56
2023-05-13T11:27:43.358Z,101653.09
2023-05-13T11:30:35.089Z,101658.00
2023-05-13T11:33:03.209Z,101645.03
2023-05-13T11:35:36.328Z,101652.38
2023-05-13T11:38:06.663Z,101648.91
2023-05-13T11:40:38.798Z,101645.16
2023-05-13T11:43:38.351Z,101645.16
2023-05-13T11:46:07.749Z,101634.00
2023-05-13T11:48:36.142Z,101628.56
2023-05-13T11:51:12.415Z,101629.41
2023-05-13T11:53:39.862Z,101638.63
2023-05-13T11:56:16.233Z,101631.53
2023-05-13T11:59:05.967Z,101630.81
2023-05-13T12:01:33.659Z,101639.00
2023-05-13T12:04:03.515Z,101629.84
2023-05-13T12:06:31.363Z,101635.19
2023-05-13T12:09:07.224Z,101641.03
2023-05-13T12:11:34.263Z,101633.97
2023-05-13T12:14:06.021Z,101636.78
2023-05-13T12:16:34.245Z,101634.25
2023-05-13T12:19:08.014Z,101637.53
2023-05-13T12:21:39.235Z,101632.38
2023-05-13T12:24:22.868Z,101644.38
2023-05-13T12:26:50.239Z,101638.13
2023-05-13T12:29:17.022Z,101636.25
2023-05-13T12:32:15.164Z,101631.78
2023-05-13T12:34:49.981Z,101627.94
2023-05-13T12:37:24.577Z,101627.56
2023-05-13T12:40:16.435Z,101629.75
2023-05-13T12:42:51.986Z,101616.34
2023-05-13T12:45:20.453Z,101627.66
2023-05-13T12:48:01.418Z,101622.66
2023-05-13T12:50:30.743Z,101628.44
2023-05-13T12:53:00.772Z,101621.16
2023-05-13T12:55:30.943Z,101624.13
2023-05-13T12:58:06.251Z,101616.56
2023-05-13T13:00:35.757Z,101615.19
2023-05-13T13:03:03.083Z,101613.75
2023-05-13T13:05:30.341Z,101607.53
2023-05-13T13:08:07.917Z,101625.50
2023-05-13T13:10:40.448Z,101624.03
2023-05-13T13:13:15.943Z,101611.59
2023-05-13T13:15:42.838Z,101608.56
2023-05-13T13:18:18.302Z,101621.50
2023-05-13T13:20:46.927Z,101624.50
2023-05-13T13:23:26.230Z,101619.19
2023-05-13T13:25:58.378Z,101611.16
2023-05-13T13:28:27.451Z,101613.97
2023-05-13T13:31:16.099Z,101604.13
2023-05-13T13:33:42.908Z,101603.50
2023-05-13T13:36:15.194Z,101615.63
2023-05-13T13:38:42.089Z,101601.09
2023-05-13T13:41:08.882Z,101605.22
2023-05-13T13:43:37.561Z,101621.69
2023-05-13T13:46:17.558Z,101607.44
2023-05-13T13:49:03.897Z,101606.47
2023-05-13T13:54:38.421Z,101606.94
2023-05-13T13:57:32.389Z,101608.34
2023-05-13T14:03:17.438Z,101607.09
2023-05-13T14:06:15.023Z,101598.16
2023-05-13T14:08:44.191Z,101606.09
2023-05-13T14:11:34.852Z,101600.19
2023-05-13T14:14:08.438Z,101592.00
2023-05-13T14:16:39.158Z,101598.91
2023-05-13T14:19:20.959Z,101589.75
2023-05-13T14:22:11.138Z,101590.66
2023-05-13T14:25:02.555Z,101595.44
2023-05-13T14:27:45.266Z,101588.66
2023-05-13T14:30:15.433Z,101599.91
2023-05-13T14:33:50.460Z,101580.94
2023-05-13T14:36:28.428Z,101593.81
2023-05-13T14:39:06.266Z,101589.22
2023-05-13T14:41:33.390Z,101582.53
2023-05-13T14:44:34.454Z,101582.06
2023-05-13T14:47:31.163Z,101578.56
2023-05-13T14:50:07.786Z,101580.69
2023-05-13T14:53:46.925Z,101586.91
2023-05-13T14:56:22.577Z,101575.09
2023-05-13T14:58:51.064Z,101579.22
2023-05-13T15:01:48.515Z,101583.91
2023-05-13T15:05:26.555Z,101590.56
2023-05-13T15:08:02.203Z,101582.50
2023-05-13T15:10:34.637Z,101583.75
2023-05-13T15:13:13.075Z,101580.41
2023-05-13T15:15:51.429Z,101584.59
2023-05-13T15:18:18.317Z,101579.63
2023-05-13T15:23:57.989Z,101574.31
2023-05-13T15:26:30.133Z,101573.28
2023-05-13T15:29:10.697Z,101571.34
2023-05-13T15:31:40.274Z,101567.50
2023-05-13T15:34:11.223Z,101572.53
2023-05-13T15:36:41.131Z,101569.06
2023-05-13T15:42:51.750Z,101570.44
2023-05-13T15:45:19.879Z,101564.00
2023-05-13T15:48:12.333Z,101574.72
2023-05-13T15:50:46.405Z,101581.78
2023-05-13T15:53:16.728Z,101568.28
2023-05-13T15:55:48.630Z,101568.84
2023-05-13T15:58:15.337Z,101577.13
2023-05-13T16:00:42.133Z,101572.03
2023-05-13T16:03:09.349Z,101569.66
2023-05-13T16:11:28.773Z,101564.47
2023-05-13T16:17:15.695Z,101556.78
2023-05-13T16:19:43.787Z,101550.69
2023-05-13T16:22:49.302Z,101555.13
2023-05-13T16:29:20.877Z,101554.50
2023-05-13T16:31:47.664Z,101547.84
2023-05-13T16:48:51.099Z,101544.34
2023-05-13T16:51:22.183Z,101545.34
2023-05-13T16:53:55.658Z,101543.63
2023-05-13T16:56:22.730Z,101533.31
2023-05-13T16:58:49.636Z,101539.47
2023-05-13T17:01:19.615Z,101534.84
2023-05-13T17:03:51.850Z,101519.59
2023-05-13T17:06:20.593Z,101532.50
2023-05-13T17:08:56.004Z,101537.38
2023-05-13T17:11:25.225Z,101535.81
2023-05-13T17:13:53.682Z,101527.25
2023-05-13T17:16:20.450Z,101526.41
2023-05-13T17:18:49.810Z,101532.31
2023-05-13T17:21:17.212Z,101532.28
2023-05-13T17:23:44.034Z,101526.31
2023-05-13T17:26:10.958Z,101519.91
2023-05-13T17:28:43.115Z,101531.66
2023-05-13T17:31:09.806Z,101523.66
2023-05-13T17:33:36.628Z,101517.22
2023-05-13T17:36:06.361Z,101526.69
2023-05-13T17:38:33.359Z,101518.31
2023-05-13T17:41:07.718Z,101515.28
2023-05-13T17:43:34.671Z,101515.50
2023-05-13T17:46:06.305Z,101524.53
2023-05-13T17:48:33.283Z,101516.09
2023-05-13T17:51:09.363Z,101525.31
2023-05-13T17:53:36.513Z,101526.06
2023-05-13T17:56:08.407Z,101535.09
2023-05-13T17:58:35.118Z,101522.84
2023-05-13T18:12:15.516Z,101512.44
2023-05-13T18:14:46.450Z,101503.44
2023-05-13T18:17:16.227Z,101518.06
2023-05-13T18:36:10.211Z,101528.63
2023-05-13T18:41:18.234Z,101522.91
2023-05-13T18:43:47.697Z,101523.75
2023-05-13T18:49:00.131Z,101522.53
2023-05-13T18:51:29.794Z,101515.34
2023-05-13T18:54:00.984Z,101521.19
2023-05-13T18:59:16.014Z,101528.84
2023-05-13T19:04:25.703Z,101529.97
2023-05-13T19:25:47.880Z,101534.66
2023-05-13T19:39:01.684Z,101537.00
2023-05-13T20:19:51.218Z,101515.66
2023-05-13T20:22:19.325Z,101517.25
2023-05-13T20:24:47.917Z,101524.22
2023-05-13T20:27:17.016Z,101517.94
2023-05-13T20:29:47.472Z,101512.41
2023-05-13T20:32:24.717Z,101515.09
2023-05-13T20:34:52.893Z,101514.81
2023-05-13T20:37:23.398Z,101507.28
2023-05-13T20:39:50.683Z,101509.53
2023-05-13T20:42:17.800Z,101516.38
2023-05-13T20:44:46.329Z,101503.41
2023-05-13T20:47:16.286Z,101512.53
2023-05-13T20:49:46.607Z,101507.97
2023-05-13T20:52:17.130Z,101506.13
2023-05-13T20:54:44.341Z,101504.56
2023-05-13T20:57:22.448Z,101504.56
2023-05-13T20:59:50.482Z,101504.00
2023-05-13T21:02:20.994Z,101500.28
2023-05-13T21:04:47.909Z,101499.69
2023-05-13T21:07:15.236Z,101503.28
2023-05-13T21:09:43.249Z,101501.31
2023-05-13T21:12:13.315Z,101504.72
2023-05-13T21:14:44.669Z,101498.88
2023-05-13T21:17:13.672Z,101496.75
2023-05-13T21:19:40.585Z,101495.28
2023-05-13T21:22:09.745Z,101495.91
2023-05-13T21:24:36.556Z,101485.78
2023-05-13T21:27:03.441Z,101478.34
2023-05-13T21:29:30.407Z,101482.38
2023-05-13T21:31:57.391Z,101469.38
2023-05-13T21:34:30.326Z,101484.59
2023-05-13T21:36:57.178Z,101479.91
2023-05-13T21:39:23.995Z,101480.34
2023-05-13T21:41:50.744Z,101479.50
2023-05-13T21:44:17.482Z,101484.47
2023-05-13T21:46:47.470Z,101479.06
2023-05-13T21:49:14.449Z,101475.66
2023-05-13T21:51:43.658Z,101480.81
2023-05-13T21:54:18.723Z,101493.44
2023-05-13T21:56:46.721Z,101485.31
2023-05-13T21:59:13.711Z,101475.63
2023-05-13T22:01:40.554Z,101487.63
2023-05-13T22:04:09.033Z,101479.50
2023-05-13T22:06:39.114Z,101489.41
2023-05-13T22:09:13.104Z,101483.75
2023-05-13T22:11:39.935Z,101479.69
2023-05-13T22:14:11.262Z,101480.41
2023-05-13T22:16:38.167Z,101480.03
2023-05-13T22:19:14.097Z,101489.59
2023-05-13T22:21:41.164Z,101484.53
2023-05-13T22:24:19.060Z,101481.41
2023-05-13T22:26:46.046Z,101476.06
2023-05-13T22:29:17.854Z,101481.72
2023-05-13T22:31:47.253Z,101480.63
2023-05-13T22:34:14.088Z,101474.16
2023-05-13T22:36:43.799Z,101476.56
2023-05-13T22:39:21.294Z,101471.31
2023-05-13T22:41:48.030Z,101476.00
2023-05-13T22:44:14.789Z,101474.25
2023-05-13T22:46:44.077Z,101474.16
2023-05-13T22:49:14.272Z,101471.19
2023-05-13T22:51:41.517Z,101466.28
2023-05-13T22:54:08.468Z,101465.31
2023-05-13T22:56:35.333Z,101471.91
2023-05-13T22:59:02.231Z,101459.91
2023-05-13T23:01:29.086Z,101468.22
2023-05-13T23:03:56.055Z,101468.78
2023-05-13T23:06:23.187Z,101461.31
2023-05-13T23:08:55.718Z,101466.91
2023-05-13T23:11:22.672Z,101460.72
2023-05-13T23:13:49.523Z,101456.56
2023-05-13T23:16:16.764Z,101457.97
2023-05-13T23:18:43.776Z,101456.91
2023-05-13T23:21:13.887Z,101460.44
2023-05-13T23:23:40.612Z,101457.34
2023-05-13T23:26:07.441Z,101462.75
2023-05-13T23:28:34.411Z,101460.50
2023-05-13T23:31:01.321Z,101454.72
2023-05-13T23:33:29.096Z,101460.00
2023-05-13T23:35:59.920Z,101458.19
2023-05-13T23:38:27.032Z,101446.88
2023-05-13T23:41:02.235Z,101447.84
2023-05-13T23:43:29.164Z,101447.78
2023-05-13T23:45:56.200Z,101447.47
2023-05-13T23:48:23.195Z,101443.47
2023-05-13T23:50:50.074Z,101442.75
2023-05-13T23:53:16.848Z,101434.44
2023-05-13T23:55:43.743Z,101440.16
2023-05-13T23:58:20.737Z,101431.25
